sensor_id;sensor_type;location;lat;lon;timestamp;pressure;altitude;pressure_sealevel;temperature;humidity
10948;BME280;5526;42.070;24.752;2023-04-04T00:00:52;97634.84;;;10.30;100.00
10948;BME280;5526;42.070;24.752;2023-04-04T00:03:21;97649.59;;;10.44;100.00
10948;BME280;5526;42.070;24.752;2023-04-04T00:05:48;97637.44;;;10.48;100.00
10948;BME280;5526;42.070;24.752;2023-04-04T00:08:17;97628.22;;;10.51;100.00
10948;BME280;5526;42.070;24.752;2023-04-04T00:10:45;97627.25;;;10.47;100.00
10948;BME280;5526;42.070;24.752;2023-04-04T00:13:13;97616.41;;;10.48;100.00
10948;BME280;5526;42.070;24.752;2023-04-04T00:15:41;97596.56;;;10.24;100.00
10948;BME280;5526;42.070;24.752;2023-04-04T00:18:08;97617.22;;;10.49;100.00
10948;BME280;5526;42.070;24.752;2023-04-04T00:20:35;97611.00;;;10.58;100.00
10948;BME280;5526;42.070;24.752;2023-04-04T00:23:03;97609.66;;;10.61;100.00
10948;BME280;5526;42.070;24.752;2023-04-04T00:25:32;97620.19;;;10.61;100.00
10948;BME280;5526;42.070;24.752;2023-04-04T00:27:59;97610.72;;;10.60;100.00
10948;BME280;5526;42.070;24.752;2023-04-04T00:30:27;97608.19;;;10.55;100.00
10948;BME280;5526;42.070;24.752;2023-04-04T00:32:56;97601.72;;;10.47;100.00
10948;BME280;5526;42.070;24.752;2023-04-04T00:35:24;97607.09;;;10.56;100.00
10948;BME280;5526;42.070;24.752;2023-04-04T00:37:51;97614.44;;;10.59;100.00
10948;BME280;5526;42.070;24.752;2023-04-04T00:40:19;97623.59;;;10.61;100.00
10948;BME280;5526;42.070;24.752;2023-04-04T00:42:50;97618.00;;;10.49;100.00
10948;BME280;5526;42.070;24.752;2023-04-04T00:45:17;97606.50;;;10.45;100.00
10948;BME280;5526;42.070;24.752;2023-04-04T00:47:44;97595.69;;;10.47;100.00
10948;BME280;5526;42.070;24.752;2023-04-04T00:50:12;97600.28;;;10.55;100.00
10948;BME280;5526;42.070;24.752;2023-04-04T00:52:39;97601.94;;;10.51;100.00
10948;BME280;5526;42.070;24.752;2023-04-04T00:55:07;97597.81;;;10.45;100.00
10948;BME280;5526;42.070;24.752;2023-04-04T00:57:34;97591.19;;;10.47;100.00
10948;BME280;5526;42.070;24.752;2023-04-04T01:00:04;97590.13;;;10.48;100.00
10948;BME280;5526;42.070;24.752;2023-04-04T01:02:32;97572.16;;;10.37;100.00
10948;BME280;5526;42.070;24.752;2023-04-04T01:05:01;97573.50;;;10.34;100.00
10948;BME280;5526;42.070;24.752;2023-04-04T01:07:29;97583.16;;;10.39;100.00
10948;BME280;5526;42.070;24.752;2023-04-04T01:09:57;97590.06;;;10.35;100.00
10948;BME280;5526;42.070;24.752;2023-04-04T01:12:26;97594.97;;;10.41;100.00
10948;BME280;5526;42.070;24.752;2023-04-04T01:14:53;97599.94;;;10.43;100.00
10948;BME280;5526;42.070;24.752;2023-04-04T01:17:22;97591.75;;;10.44;100.00
10948;BME280;5526;42.070;24.752;2023-04-04T01:19:58;97585.09;;;10.52;100.00
10948;BME280;5526;42.070;24.752;2023-04-04T01:22:29;97572.91;;;10.56;100.00
10948;BME280;5526;42.070;24.752;2023-04-04T01:24:59;97564.75;;;10.57;100.00
10948;BME280;5526;42.070;24.752;2023-04-04T01:27:30;97561.59;;;10.55;100.00
10948;BME280;5526;42.070;24.752;2023-04-04T01:29:58;97557.50;;;10.49;100.00
10948;BME280;5526;42.070;24.752;2023-04-04T01:32:32;97563.34;;;10.46;100.00
10948;BME280;5526;42.070;24.752;2023-04-04T01:35:12;97557.84;;;10.43;100.00
10948;BME280;5526;42.070;24.752;2023-04-04T01:37:52;97555.31;;;10.38;100.00
10948;BME280;5526;42.070;24.752;2023-04-04T01:40:27;97559.63;;;10.47;100.00
10948;BME280;5526;42.070;24.752;2023-04-04T01:42:56;97557.69;;;10.53;100.00
10948;BME280;5526;42.070;24.752;2023-04-04T01:45:23;97549.03;;;10.52;100.00
10948;BME280;5526;42.070;24.752;2023-04-04T01:47:50;97561.03;;;10.58;100.00
10948;BME280;5526;42.070;24.752;2023-04-04T01:50:19;97562.81;;;10.63;100.00
10948;BME280;5526;42.070;24.752;2023-04-04T01:52:46;97557.47;;;10.68;100.00
10948;BME280;5526;42.070;24.752;2023-04-04T01:55:15;97558.25;;;10.68;100.00
10948;BME280;5526;42.070;24.752;2023-04-04T01:57:43;97559.00;;;10.69;100.00
10948;BME280;5526;42.070;24.752;2023-04-04T02:00:13;97555.22;;;10.61;100.00
10948;BME280;5526;42.070;24.752;2023-04-04T02:02:42;97545.56;;;10.70;100.00
10948;BME280;5526;42.070;24.752;2023-04-04T02:05:09;97546.38;;;10.71;100.00
10948;BME280;5526;42.070;24.752;2023-04-04T02:07:37;97555.81;;;10.72;100.00
10948;BME280;5526;42.070;24.752;2023-04-04T02:10:05;97561.34;;;10.70;100.00
10948;BME280;5526;42.070;24.752;2023-04-04T02:12:34;97560.22;;;10.76;100.00
10948;BME280;5526;42.070;24.752;2023-04-04T02:15:02;97555.84;;;10.85;100.00
10948;BME280;5526;42.070;24.752;2023-04-04T02:17:31;97551.06;;;10.87;100.00
10948;BME280;5526;42.070;24.752;2023-04-04T02:20:01;97557.53;;;10.95;100.00
10948;BME280;5526;42.070;24.752;2023-04-04T02:22:28;97546.78;;;10.91;100.00
10948;BME280;5526;42.070;24.752;2023-04-04T02:24:56;97549.13;;;10.93;100.00
10948;BME280;5526;42.070;24.752;2023-04-04T02:27:24;97555.75;;;10.90;100.00
10948;BME280;5526;42.070;24.752;2023-04-04T02:29:51;97555.38;;;10.97;100.00
10948;BME280;5526;42.070;24.752;2023-04-04T02:32:19;97561.72;;;10.96;100.00
10948;BME280;5526;42.070;24.752;2023-04-04T02:34:49;97545.91;;;10.96;100.00
10948;BME280;5526;42.070;24.752;2023-04-04T02:37:17;97555.78;;;11.04;100.00
10948;BME280;5526;42.070;24.752;2023-04-04T02:39:44;97549.25;;;11.15;100.00
10948;BME280;5526;42.070;24.752;2023-04-04T02:42:13;97545.06;;;11.27;100.00
10948;BME280;5526;42.070;24.752;2023-04-04T02:44:41;97547.09;;;11.30;100.00
10948;BME280;5526;42.070;24.752;2023-04-04T02:47:08;97535.88;;;11.38;100.00
10948;BME280;5526;42.070;24.752;2023-04-04T02:49:35;97536.84;;;11.42;100.00
10948;BME280;5526;42.070;24.752;2023-04-04T02:52:04;97539.19;;;11.44;100.00
10948;BME280;5526;42.070;24.752;2023-04-04T02:54:32;97535.59;;;11.40;100.00
10948;BME280;5526;42.070;24.752;2023-04-04T02:56:59;97535.00;;;11.43;100.00
10948;BME280;5526;42.070;24.752;2023-04-04T02:59:28;97541.25;;;11.47;100.00
10948;BME280;5526;42.070;24.752;2023-04-04T03:01:55;97549.44;;;11.45;100.00
10948;BME280;5526;42.070;24.752;2023-04-04T03:04:23;97546.53;;;11.47;100.00
10948;BME280;5526;42.070;24.752;2023-04-04T03:06:51;97542.22;;;11.51;100.00
10948;BME280;5526;42.070;24.752;2023-04-04T03:09:20;97544.28;;;11.40;100.00
10948;BME280;5526;42.070;24.752;2023-04-04T03:11:48;97546.13;;;11.40;100.00
10948;BME280;5526;42.070;24.752;2023-04-04T03:14:16;97545.44;;;11.48;100.00
10948;BME280;5526;42.070;24.752;2023-04-04T03:16:44;97544.28;;;11.40;100.00
10948;BME280;5526;42.070;24.752;2023-04-04T03:19:13;97554.81;;;11.40;100.00
10948;BME280;5526;42.070;24.752;2023-04-04T03:21:40;97553.56;;;11.38;100.00
10948;BME280;5526;42.070;24.752;2023-04-04T03:24:07;97545.53;;;11.16;100.00
10948;BME280;5526;42.070;24.752;2023-04-04T03:26:35;97553.72;;;11.14;100.00
10948;BME280;5526;42.070;24.752;2023-04-04T03:29:02;97556.88;;;11.16;100.00
10948;BME280;5526;42.070;24.752;2023-04-04T03:31:31;97565.44;;;11.22;100.00
10948;BME280;5526;42.070;24.752;2023-04-04T03:33:58;97574.41;;;11.21;100.00
10948;BME280;5526;42.070;24.752;2023-04-04T03:36:27;97580.47;;;11.21;100.00
10948;BME280;5526;42.070;24.752;2023-04-04T03:38:55;97587.97;;;11.28;100.00
10948;BME280;5526;42.070;24.752;2023-04-04T03:41:22;97581.44;;;11.25;100.00
10948;BME280;5526;42.070;24.752;2023-04-04T03:43:50;97580.06;;;11.28;100.00
10948;BME280;5526;42.070;24.752;2023-04-04T03:46:17;97585.25;;;11.33;100.00
10948;BME280;5526;42.070;24.752;2023-04-04T03:48:44;97582.63;;;11.33;100.00
10948;BME280;5526;42.070;24.752;2023-04-04T03:51:11;97575.38;;;11.38;100.00
10948;BME280;5526;42.070;24.752;2023-04-04T03:53:38;97582.13;;;11.44;100.00
10948;BME280;5526;42.070;24.752;2023-04-04T03:56:06;97583.50;;;11.42;100.00
10948;BME280;5526;42.070;24.752;2023-04-04T03:58:34;97596.56;;;11.47;100.00
10948;BME280;5526;42.070;24.752;2023-04-04T04:01:04;97599.50;;;11.59;100.00
10948;BME280;5526;42.070;24.752;2023-04-04T04:03:32;97604.69;;;11.64;100.00
10948;BME280;5526;42.070;24.752;2023-04-04T04:05:59;97603.69;;;11.60;100.00
10948;BME280;5526;42.070;24.752;2023-04-04T04:08:27;97601.38;;;11.58;100.00
10948;BME280;5526;42.070;24.752;2023-04-04T04:10:56;97596.56;;;11.47;100.00
10948;BME280;5526;42.070;24.752;2023-04-04T04:13:28;97600.00;;;11.47;100.00
10948;BME280;5526;42.070;24.752;2023-04-04T04:15:57;97600.88;;;11.43;100.00
10948;BME280;5526;42.070;24.752;2023-04-04T04:18:27;97605.06;;;11.44;100.00
10948;BME280;5526;42.070;24.752;2023-04-04T04:20:56;97598.41;;;11.46;100.00
10948;BME280;5526;42.070;24.752;2023-04-04T04:23:24;97600.28;;;11.46;100.00
10948;BME280;5526;42.070;24.752;2023-04-04T04:25:51;97597.75;;;11.41;100.00
10948;BME280;5526;42.070;24.752;2023-04-04T04:28:19;97596.94;;;11.27;100.00
10948;BME280;5526;42.070;24.752;2023-04-04T04:30:47;97594.59;;;11.25;100.00
10948;BME280;5526;42.070;24.752;2023-04-04T04:33:14;97599.59;;;11.27;100.00
10948;BME280;5526;42.070;24.752;2023-04-04T04:35:44;97606.41;;;11.28;100.00
10948;BME280;5526;42.070;24.752;2023-04-04T04:38:11;97596.94;;;11.27;100.00
10948;BME280;5526;42.070;24.752;2023-04-04T04:40:38;97601.34;;;11.18;100.00
10948;BME280;5526;42.070;24.752;2023-04-04T04:43:06;97609.91;;;11.10;100.00
10948;BME280;5526;42.070;24.752;2023-04-04T04:45:33;97603.84;;;11.09;100.00
10948;BME280;5526;42.070;24.752;2023-04-04T04:48:01;97616.50;;;11.07;100.00
10948;BME280;5526;42.070;24.752;2023-04-04T04:50:28;97614.38;;;11.09;100.00
10948;BME280;5526;42.070;24.752;2023-04-04T04:52:56;97615.25;;;11.05;100.00
10948;BME280;5526;42.070;24.752;2023-04-04T04:55:23;97609.00;;;11.01;100.00
10948;BME280;5526;42.070;24.752;2023-04-04T04:57:52;97612.59;;;11.05;100.00
10948;BME280;5526;42.070;24.752;2023-04-04T05:00:20;97599.94;;;11.07;100.00
10948;BME280;5526;42.070;24.752;2023-04-04T05:02:47;97593.59;;;11.08;100.00
10948;BME280;5526;42.070;24.752;2023-04-04T05:05:16;97595.66;;;11.11;100.00
10948;BME280;5526;42.070;24.752;2023-04-04T05:07:44;97605.78;;;11.04;100.00
10948;BME280;5526;42.070;24.752;2023-04-04T05:10:13;97603.84;;;11.09;100.00
10948;BME280;5526;42.070;24.752;2023-04-04T05:12:41;97605.91;;;11.12;100.00
10948;BME280;5526;42.070;24.752;2023-04-04T05:15:11;97603.38;;;11.21;100.00
10948;BME280;5526;42.070;24.752;2023-04-04T05:17:38;97587.09;;;11.19;100.00
10948;BME280;5526;42.070;24.752;2023-04-04T05:20:07;97600.94;;;11.24;100.00
10948;BME280;5526;42.070;24.752;2023-04-04T05:22:34;97595.09;;;11.27;100.00
10948;BME280;5526;42.070;24.752;2023-04-04T05:25:01;97601.44;;;11.26;100.00
10948;BME280;5526;42.070;24.752;2023-04-04T05:27:30;97587.56;;;11.21;100.00
10948;BME280;5526;42.070;24.752;2023-04-04T05:29:58;97593.34;;;11.23;100.00
10948;BME280;5526;42.070;24.752;2023-04-04T05:32:25;97595.19;;;11.22;100.00
10948;BME280;5526;42.070;24.752;2023-04-04T05:34:54;97587.66;;;11.16;100.00
10948;BME280;5526;42.070;24.752;2023-04-04T05:37:21;97591.94;;;11.12;100.00
10948;BME280;5526;42.070;24.752;2023-04-04T05:39:49;97590.19;;;11.21;100.00
10948;BME280;5526;42.070;24.752;2023-04-04T05:42:16;97592.25;;;11.24;100.00
10948;BME280;5526;42.070;24.752;2023-04-04T05:44:44;97596.38;;;11.30;100.00
10948;BME280;5526;42.070;24.752;2023-04-04T05:47:11;97597.63;;;11.32;100.00
10948;BME280;5526;42.070;24.752;2023-04-04T05:49:40;97602.91;;;11.32;100.00
10948;BME280;5526;42.070;24.752;2023-04-04T05:52:08;97607.19;;;11.28;100.00
10948;BME280;5526;42.070;24.752;2023-04-04T05:54:36;97614.28;;;11.14;100.00
10948;BME280;5526;42.070;24.752;2023-04-04T05:57:04;97612.84;;;11.22;100.00
10948;BME280;5526;42.070;24.752;2023-04-04T05:59:32;97610.50;;;11.20;100.00
10948;BME280;5526;42.070;24.752;2023-04-04T06:02:01;97623.22;;;11.00;100.00
10948;BME280;5526;42.070;24.752;2023-04-04T06:04:29;97613.78;;;10.99;100.00
10948;BME280;5526;42.070;24.752;2023-04-04T06:06:56;97617.69;;;11.01;100.00
10948;BME280;5526;42.070;24.752;2023-04-04T06:09:24;97626.75;;;11.09;100.00
10948;BME280;5526;42.070;24.752;2023-04-04T06:11:52;97620.44;;;11.10;100.00
10948;BME280;5526;42.070;24.752;2023-04-04T06:14:21;97618.16;;;11.03;100.00
10948;BME280;5526;42.070;24.752;2023-04-04T06:16:49;97626.94;;;10.99;100.00
10948;BME280;5526;42.070;24.752;2023-04-04T06:19:18;97636.28;;;11.05;100.00
10948;BME280;5526;42.070;24.752;2023-04-04T06:21:46;97624.88;;;10.96;100.00
10948;BME280;5526;42.070;24.752;2023-04-04T06:24:13;97616.97;;;10.96;100.00
10948;BME280;5526;42.070;24.752;2023-04-04T06:26:41;97631.53;;;11.07;100.00
10948;BME280;5526;42.070;24.752;2023-04-04T06:29:10;97625.75;;;11.05;100.00
10948;BME280;5526;42.070;24.752;2023-04-04T06:31:37;97634.56;;;11.00;100.00
10948;BME280;5526;42.070;24.752;2023-04-04T06:34:06;97628.06;;;11.11;100.00
10948;BME280;5526;42.070;24.752;2023-04-04T06:36:35;97630.59;;;11.16;100.00
10948;BME280;5526;42.070;24.752;2023-04-04T06:39:05;97636.63;;;11.17;100.00
10948;BME280;5526;42.070;24.752;2023-04-04T06:41:32;97628.66;;;11.22;100.00
10948;BME280;5526;42.070;24.752;2023-04-04T06:43:59;97631.28;;;11.22;100.00
10948;BME280;5526;42.070;24.752;2023-04-04T06:46:29;97623.13;;;11.37;100.00
10948;BME280;5526;42.070;24.752;2023-04-04T06:48:58;97623.59;;;11.39;100.00
10948;BME280;5526;42.070;24.752;2023-04-04T06:51:27;97623.19;;;11.45;100.00
10948;BME280;5526;42.070;24.752;2023-04-04T06:53:57;97612.19;;;11.43;100.00
10948;BME280;5526;42.070;24.752;2023-04-04T06:56:25;97622.44;;;11.58;100.00
10948;BME280;5526;42.070;24.752;2023-04-04T06:58:54;97621.28;;;11.64;100.00
10948;BME280;5526;42.070;24.752;2023-04-04T07:01:21;97628.09;;;11.65;100.00
10948;BME280;5526;42.070;24.752;2023-04-04T07:03:51;97622.38;;;11.63;100.00
10948;BME280;5526;42.070;24.752;2023-04-04T07:06:20;97618.38;;;11.66;100.00
10948;BME280;5526;42.070;24.752;2023-04-04T07:08:48;97619.91;;;11.67;100.00
10948;BME280;5526;42.070;24.752;2023-04-04T07:11:17;97621.00;;;11.66;100.00
10948;BME280;5526;42.070;24.752;2023-04-04T07:13:44;97630.56;;;11.62;100.00
10948;BME280;5526;42.070;24.752;2023-04-04T07:16:11;97629.19;;;11.64;100.00
10948;BME280;5526;42.070;24.752;2023-04-04T07:18:38;97629.88;;;11.70;100.00
10948;BME280;5526;42.070;24.752;2023-04-04T07:21:06;97640.31;;;11.75;100.00
10948;BME280;5526;42.070;24.752;2023-04-04T07:23:35;97635.59;;;12.12;100.00
10948;BME280;5526;42.070;24.752;2023-04-04T07:26:02;97643.84;;;12.68;100.00
10948;BME280;5526;42.070;24.752;2023-04-04T07:28:32;97642.34;;;12.18;100.00
10948;BME280;5526;42.070;24.752;2023-04-04T07:31:00;97655.63;;;12.00;100.00
10948;BME280;5526;42.070;24.752;2023-04-04T07:33:28;97651.34;;;11.90;100.00
10948;BME280;5526;42.070;24.752;2023-04-04T07:35:55;97653.41;;;12.42;100.00
10948;BME280;5526;42.070;24.752;2023-04-04T07:38:23;97652.78;;;12.10;100.00
10948;BME280;5526;42.070;24.752;2023-04-04T07:40:51;97660.53;;;11.93;100.00
10948;BME280;5526;42.070;24.752;2023-04-04T07:43:19;97659.25;;;11.90;100.00
10948;BME280;5526;42.070;24.752;2023-04-04T07:45:47;97653.00;;;12.00;100.00
10948;BME280;5526;42.070;24.752;2023-04-04T07:48:15;97658.47;;;12.03;100.00
10948;BME280;5526;42.070;24.752;2023-04-04T07:50:42;97651.13;;;12.14;100.00
10948;BME280;5526;42.070;24.752;2023-04-04T07:53:10;97639.38;;;12.33;100.00
10948;BME280;5526;42.070;24.752;2023-04-04T07:55:37;97650.88;;;12.37;100.00
10948;BME280;5526;42.070;24.752;2023-04-04T07:58:04;97643.22;;;12.49;100.00
10948;BME280;5526;42.070;24.752;2023-04-04T08:00:31;97641.81;;;12.65;100.00
10948;BME280;5526;42.070;24.752;2023-04-04T08:03:01;97642.13;;;12.86;100.00
10948;BME280;5526;42.070;24.752;2023-04-04T08:05:28;97643.22;;;13.07;100.00
10948;BME280;5526;42.070;24.752;2023-04-04T08:07:55;97653.31;;;13.05;100.00
10948;BME280;5526;42.070;24.752;2023-04-04T08:10:22;97653.09;;;13.24;100.00
10948;BME280;5526;42.070;24.752;2023-04-04T08:12:49;97649.66;;;13.23;100.00
10948;BME280;5526;42.070;24.752;2023-04-04T08:15:17;97660.25;;;14.01;100.00
10948;BME280;5526;42.070;24.752;2023-04-04T08:17:46;97664.66;;;13.67;100.00
10948;BME280;5526;42.070;24.752;2023-04-04T08:20:14;97659.19;;;13.63;100.00
10948;BME280;5526;42.070;24.752;2023-04-04T08:22:43;97663.38;;;13.56;100.00
10948;BME280;5526;42.070;24.752;2023-04-04T08:25:11;97662.72;;;13.50;100.00
10948;BME280;5526;42.070;24.752;2023-04-04T08:27:40;97663.56;;;13.68;100.00
10948;BME280;5526;42.070;24.752;2023-04-04T08:30:10;97649.69;;;13.62;100.00
10948;BME280;5526;42.070;24.752;2023-04-04T08:32:40;97667.41;;;13.62;100.00
10948;BME280;5526;42.070;24.752;2023-04-04T08:35:08;97667.84;;;13.47;100.00
10948;BME280;5526;42.070;24.752;2023-04-04T08:37:37;97662.97;;;13.40;100.00
10948;BME280;5526;42.070;24.752;2023-04-04T08:40:05;97673.44;;;13.54;100.00
10948;BME280;5526;42.070;24.752;2023-04-04T08:42:35;97669.09;;;13.58;100.00
10948;BME280;5526;42.070;24.752;2023-04-04T08:45:05;97675.19;;;13.58;100.00
10948;BME280;5526;42.070;24.752;2023-04-04T08:47:34;97665.34;;;13.50;100.00
10948;BME280;5526;42.070;24.752;2023-04-04T08:50:04;97676.88;;;13.54;100.00
10948;BME280;5526;42.070;24.752;2023-04-04T08:52:32;97679.66;;;13.49;100.00
10948;BME280;5526;42.070;24.752;2023-04-04T08:55:03;97685.28;;;13.56;100.00
10948;BME280;5526;42.070;24.752;2023-04-04T08:57:32;97682.66;;;13.56;100.00
10948;BME280;5526;42.070;24.752;2023-04-04T08:59:59;97685.78;;;14.14;100.00
10948;BME280;5526;42.070;24.752;2023-04-04T09:02:33;97686.38;;;13.94;100.00
10948;BME280;5526;42.070;24.752;2023-04-04T09:05:02;97685.38;;;13.73;100.00
10948;BME280;5526;42.070;24.752;2023-04-04T09:07:30;97684.47;;;13.78;100.00
10948;BME280;5526;42.070;24.752;2023-04-04T09:09:58;97687.00;;;13.91;100.00
10948;BME280;5526;42.070;24.752;2023-04-04T09:12:27;97692.03;;;14.10;100.00
10948;BME280;5526;42.070;24.752;2023-04-04T09:14:55;97681.94;;;14.20;100.00
10948;BME280;5526;42.070;24.752;2023-04-04T09:17:24;97691.19;;;14.31;100.00
10948;BME280;5526;42.070;24.752;2023-04-04T09:19:52;97691.03;;;14.36;100.00
10948;BME280;5526;42.070;24.752;2023-04-04T09:22:19;97686.53;;;14.37;100.00
10948;BME280;5526;42.070;24.752;2023-04-04T09:24:47;97681.34;;;14.32;100.00
10948;BME280;5526;42.070;24.752;2023-04-04T09:27:16;97685.50;;;14.16;100.00
10948;BME280;5526;42.070;24.752;2023-04-04T09:29:46;97700.94;;;14.22;100.00
10948;BME280;5526;42.070;24.752;2023-04-04T09:32:14;97692.09;;;14.27;100.00
10948;BME280;5526;42.070;24.752;2023-04-04T09:34:43;97687.84;;;14.17;100.00
10948;BME280;5526;42.070;24.752;2023-04-04T09:37:13;97680.16;;;13.99;100.00
10948;BME280;5526;42.070;24.752;2023-04-04T09:39:42;97693.53;;;14.33;100.00
10948;BME280;5526;42.070;24.752;2023-04-04T09:42:11;97695.72;;;14.56;100.00
10948;BME280;5526;42.070;24.752;2023-04-04T09:44:39;97694.03;;;14.77;100.00
10948;BME280;5526;42.070;24.752;2023-04-04T09:47:26;97696.81;;;14.55;100.00
10948;BME280;5526;42.070;24.752;2023-04-04T09:49:57;97697.56;;;15.32;100.00
10948;BME280;5526;42.070;24.752;2023-04-04T09:52:25;97700.72;;;14.58;100.00
10948;BME280;5526;42.070;24.752;2023-04-04T09:54:54;97691.16;;;14.40;100.00
10948;BME280;5526;42.070;24.752;2023-04-04T09:57:25;97690.56;;;14.34;100.00
10948;BME280;5526;42.070;24.752;2023-04-04T09:59:56;97696.59;;;14.26;100.00
10948;BME280;5526;42.070;24.752;2023-04-04T10:02:26;97698.81;;;14.41;100.00
10948;BME280;5526;42.070;24.752;2023-04-04T10:04:53;97701.19;;;14.51;100.00
10948;BME280;5526;42.070;24.752;2023-04-04T10:07:23;97696.66;;;14.60;100.00
10948;BME280;5526;42.070;24.752;2023-04-04T10:09:52;97688.25;;;14.67;100.00
10948;BME280;5526;42.070;24.752;2023-04-04T10:12:21;97697.91;;;14.97;100.00
10948;BME280;5526;42.070;24.752;2023-04-04T10:14:55;97693.69;;;15.13;100.00
10948;BME280;5526;42.070;24.752;2023-04-04T10:17:23;97684.19;;;15.20;100.00
10948;BME280;5526;42.070;24.752;2023-04-04T10:19:53;97686.97;;;15.24;100.00
10948;BME280;5526;42.070;24.752;2023-04-04T10:22:20;97677.31;;;15.19;100.00
10948;BME280;5526;42.070;24.752;2023-04-04T10:24:48;97688.38;;;15.04;100.00
10948;BME280;5526;42.070;24.752;2023-04-04T10:27:15;97683.56;;;15.06;100.00
10948;BME280;5526;42.070;24.752;2023-04-04T10:29:43;97681.53;;;15.12;100.00
10948;BME280;5526;42.070;24.752;2023-04-04T10:32:25;97685.13;;;15.24;100.00
10948;BME280;5526;42.070;24.752;2023-04-04T10:35:01;97682.91;;;15.18;100.00
10948;BME280;5526;42.070;24.752;2023-04-04T10:37:31;97679.81;;;15.07;100.00
10948;BME280;5526;42.070;24.752;2023-04-04T10:40:04;97685.88;;;15.25;100.00
10948;BME280;5526;42.070;24.752;2023-04-04T10:42:38;97680.59;;;15.16;100.00
10948;BME280;5526;42.070;24.752;2023-04-04T10:45:07;97675.75;;;15.10;100.00
10948;BME280;5526;42.070;24.752;2023-04-04T10:47:36;97683.09;;;15.13;100.00
10948;BME280;5526;42.070;24.752;2023-04-04T10:50:06;97674.78;;;15.31;100.00
10948;BME280;5526;42.070;24.752;2023-04-04T10:52:35;97674.97;;;15.35;100.00
10948;BME280;5526;42.070;24.752;2023-04-04T10:55:05;97683.50;;;15.49;100.00
10948;BME280;5526;42.070;24.752;2023-04-04T10:57:36;97674.91;;;15.60;100.00
10948;BME280;5526;42.070;24.752;2023-04-04T11:00:06;97678.78;;;15.71;100.00
10948;BME280;5526;42.070;24.752;2023-04-04T11:02:46;97673.94;;;15.65;100.00
10948;BME280;5526;42.070;24.752;2023-04-04T11:05:18;97680.13;;;15.77;100.00
10948;BME280;5526;42.070;24.752;2023-04-04T11:07:52;97685.00;;;15.75;100.00
10948;BME280;5526;42.070;24.752;2023-04-04T11:10:22;97684.84;;;15.72;100.00
10948;BME280;5526;42.070;24.752;2023-04-04T11:12:54;97676.78;;;15.51;100.00
10948;BME280;5526;42.070;24.752;2023-04-04T11:15:24;97656.69;;;15.50;100.00
10948;BME280;5526;42.070;24.752;2023-04-04T11:17:57;97668.09;;;15.88;100.00
10948;BME280;5526;42.070;24.752;2023-04-04T11:20:30;97673.97;;;16.23;100.00
10948;BME280;5526;42.070;24.752;2023-04-04T11:23:05;97677.31;;;16.40;100.00
10948;BME280;5526;42.070;24.752;2023-04-04T11:25:36;97667.25;;;16.54;100.00
10948;BME280;5526;42.070;24.752;2023-04-04T11:28:08;97673.69;;;16.53;100.00
10948;BME280;5526;42.070;24.752;2023-04-04T11:30:41;97672.50;;;16.42;100.00
10948;BME280;5526;42.070;24.752;2023-04-04T11:33:13;97674.66;;;16.40;100.00
10948;BME280;5526;42.070;24.752;2023-04-04T11:35:58;97680.50;;;16.25;100.00
10948;BME280;5526;42.070;24.752;2023-04-04T11:38:31;97673.16;;;16.60;100.00
10948;BME280;5526;42.070;24.752;2023-04-04T11:40:59;97678.63;;;16.55;100.00
10948;BME280;5526;42.070;24.752;2023-04-04T11:43:26;97673.91;;;16.60;100.00
10948;BME280;5526;42.070;24.752;2023-04-04T11:46:04;97680.88;;;16.73;100.00
10948;BME280;5526;42.070;24.752;2023-04-04T11:48:34;97674.38;;;16.83;100.00
10948;BME280;5526;42.070;24.752;2023-04-04T11:51:05;97683.75;;;17.01;100.00
10948;BME280;5526;42.070;24.752;2023-04-04T11:53:33;97678.00;;;16.99;100.00
10948;BME280;5526;42.070;24.752;2023-04-04T11:56:02;97674.53;;;17.19;100.00
10948;BME280;5526;42.070;24.752;2023-04-04T11:58:29;97678.72;;;17.41;100.00
10948;BME280;5526;42.070;24.752;2023-04-04T12:00:57;97674.31;;;17.57;100.00
10948;BME280;5526;42.070;24.752;2023-04-04T12:03:27;97676.66;;;17.82;100.00
10948;BME280;5526;42.070;24.752;2023-04-04T12:05:56;97674.66;;;17.79;100.00
10948;BME280;5526;42.070;24.752;2023-04-04T12:08:27;97685.84;;;17.61;99.73
10948;BME280;5526;42.070;24.752;2023-04-04T12:10:55;97676.16;;;17.44;100.00
10948;BME280;5526;42.070;24.752;2023-04-04T12:13:29;97677.00;;;17.36;100.00
10948;BME280;5526;42.070;24.752;2023-04-04T12:15:56;97676.00;;;17.29;100.00
10948;BME280;5526;42.070;24.752;2023-04-04T12:18:25;97670.53;;;17.25;100.00
10948;BME280;5526;42.070;24.752;2023-04-04T12:20:52;97676.69;;;16.84;100.00
10948;BME280;5526;42.070;24.752;2023-04-04T12:23:21;97677.81;;;16.42;100.00
10948;BME280;5526;42.070;24.752;2023-04-04T12:25:49;97679.19;;;16.40;100.00
10948;BME280;5526;42.070;24.752;2023-04-04T12:28:19;97670.13;;;16.12;100.00
10948;BME280;5526;42.070;24.752;2023-04-04T12:30:48;97675.44;;;15.83;100.00
10948;BME280;5526;42.070;24.752;2023-04-04T12:33:17;97674.13;;;15.51;100.00
10948;BME280;5526;42.070;24.752;2023-04-04T12:35:50;97669.50;;;15.40;100.00
10948;BME280;5526;42.070;24.752;2023-04-04T12:38:17;97676.38;;;15.15;100.00
10948;BME280;5526;42.070;24.752;2023-04-04T12:40:45;97679.81;;;15.07;100.00
10948;BME280;5526;42.070;24.752;2023-04-04T12:43:16;97680.91;;;14.98;100.00
10948;BME280;5526;42.070;24.752;2023-04-04T12:45:49;97677.66;;;14.92;100.00
10948;BME280;5526;42.070;24.752;2023-04-04T12:48:16;97677.78;;;15.04;100.00
10948;BME280;5526;42.070;24.752;2023-04-04T12:50:51;97680.47;;;14.96;100.00
10948;BME280;5526;42.070;24.752;2023-04-04T12:53:21;97675.44;;;15.11;100.00
10948;BME280;5526;42.070;24.752;2023-04-04T12:55:49;97673.28;;;15.05;100.00
10948;BME280;5526;42.070;24.752;2023-04-04T12:58:21;97696.47;;;15.16;100.00